createdAt,value
2019-03-28T00:00:02.176Z,7.00
2019-03-28T00:02:32.153Z,7.10
2019-03-28T00:05:02.197Z,7.00
2019-03-28T00:07:33.174Z,6.90
2019-03-28T00:10:03.212Z,6.90
2019-03-28T00:12:33.378Z,6.90
2019-03-28T00:15:03.426Z,6.80
2019-03-28T00:17:33.519Z,6.90
2019-03-28T00:23:25.584Z,6.80
2019-03-28T00:25:55.485Z,6.70
2019-03-28T00:28:25.447Z,6.80
2019-03-28T00:30:55.524Z,6.80
2019-03-28T00:33:27.791Z,6.80
2019-03-28T00:36:00.895Z,6.70
2019-03-28T00:38:30.851Z,6.70
2019-03-28T00:41:05.922Z,6.50
2019-03-28T00:43:33.345Z,6.60
2019-03-28T00:46:03.386Z,6.60
2019-03-28T00:48:33.424Z,6.60
2019-03-28T00:51:03.362Z,6.60
2019-03-28T00:53:54.032Z,6.60
2019-03-28T00:56:23.922Z,6.50
2019-03-28T00:58:54.031Z,6.50
2019-03-28T01:01:23.939Z,6.50
2019-03-28T01:03:53.785Z,6.60
2019-03-28T01:06:23.698Z,6.50
2019-03-28T01:08:53.569Z,6.40
2019-03-28T01:11:23.467Z,6.30
2019-03-28T01:13:53.529Z,6.30
2019-03-28T01:16:25.561Z,6.30
2019-03-28T01:18:55.688Z,6.20
2019-03-28T01:21:25.893Z,6.30
2019-03-28T01:23:55.929Z,6.30
2019-03-28T01:26:25.821Z,6.50
2019-03-28T01:28:56.197Z,6.60
2019-03-28T01:31:26.397Z,6.60
2019-03-28T01:33:56.133Z,6.50
2019-03-28T01:36:26.275Z,6.60
2019-03-28T01:38:56.573Z,6.60
2019-03-28T01:41:26.349Z,6.60
2019-03-28T01:43:56.188Z,6.60
2019-03-28T01:46:26.669Z,6.50
2019-03-28T01:48:56.485Z,6.30
2019-03-28T01:51:26.341Z,6.20
2019-03-28T01:53:56.217Z,6.10
2019-03-28T01:56:26.022Z,6.30
2019-03-28T01:58:55.886Z,6.20
2019-03-28T02:01:26.349Z,6.20
2019-03-28T02:03:56.199Z,6.20
2019-03-28T02:06:26.371Z,6.30
2019-03-28T02:08:56.379Z,6.20
2019-03-28T02:11:26.407Z,6.20
2019-03-28T02:13:56.706Z,6.20
2019-03-28T02:16:26.814Z,6.10
2019-03-28T02:18:56.729Z,6.20
2019-03-28T02:21:27.256Z,6.20
2019-03-28T02:23:57.264Z,6.20
2019-03-28T02:26:27.171Z,6.10
2019-03-28T02:28:57.080Z,6.00
2019-03-28T02:31:26.949Z,6.00
2019-03-28T02:33:57.110Z,6.00
2019-03-28T02:36:26.970Z,5.90
2019-03-28T02:38:56.787Z,5.90
2019-03-28T02:41:26.791Z,5.80
2019-03-28T02:43:56.672Z,5.90
2019-03-28T02:46:28.450Z,5.90
2019-03-28T02:48:58.358Z,5.80
2019-03-28T02:51:28.237Z,5.80
2019-03-28T02:53:58.014Z,5.80
2019-03-28T02:56:27.786Z,5.80
2019-03-28T02:58:57.658Z,5.80
2019-03-28T03:01:30.413Z,5.80
2019-03-28T03:04:00.513Z,5.80
2019-03-28T03:06:30.337Z,5.80
2019-03-28T03:09:00.237Z,5.70
2019-03-28T03:11:30.131Z,5.70
2019-03-28T03:13:59.961Z,5.70
2019-03-28T03:16:29.848Z,5.60
2019-03-28T03:18:59.816Z,5.60
2019-03-28T03:21:30.342Z,5.50
2019-03-28T03:24:00.146Z,5.60
2019-03-28T03:26:30.431Z,5.60
2019-03-28T03:29:00.806Z,5.50
2019-03-28T03:31:30.605Z,5.50
2019-03-28T03:34:00.822Z,5.50
2019-03-28T03:36:30.732Z,5.50
2019-03-28T03:39:00.922Z,5.50
2019-03-28T03:41:31.067Z,5.50
2019-03-28T03:44:00.858Z,5.50
2019-03-28T03:46:31.822Z,5.50
2019-03-28T03:49:02.147Z,5.60
2019-03-28T03:51:31.869Z,5.60
2019-03-28T03:54:01.621Z,5.60
2019-03-28T03:56:31.475Z,5.50
2019-03-28T03:59:01.650Z,5.60
2019-03-28T04:01:31.570Z,5.50
2019-03-28T04:04:01.385Z,5.40
2019-03-28T04:06:31.300Z,5.40
2019-03-28T04:09:01.173Z,5.30
2019-03-28T04:11:31.048Z,5.30
2019-03-28T04:14:00.913Z,5.30
2019-03-28T04:16:30.836Z,5.30
2019-03-28T04:19:00.634Z,5.30
2019-03-28T04:21:30.425Z,5.30
2019-03-28T04:24:00.598Z,5.20
2019-03-28T04:26:31.690Z,5.20
2019-03-28T04:29:01.619Z,5.10
2019-03-28T04:31:32.074Z,5.20
2019-03-28T04:34:07.351Z,5.10
2019-03-28T04:36:33.433Z,5.10
2019-03-28T04:39:04.608Z,5.00
2019-03-28T04:41:35.612Z,5.00
2019-03-28T04:44:05.517Z,5.00
2019-03-28T04:46:35.568Z,5.00
2019-03-28T04:49:05.320Z,5.00
2019-03-28T04:51:35.097Z,4.90
2019-03-28T04:54:05.320Z,4.90
2019-03-28T04:56:35.265Z,4.80
2019-03-28T04:59:05.218Z,4.90
2019-03-28T05:01:35.146Z,4.90
2019-03-28T05:04:04.985Z,4.90
2019-03-28T05:06:37.869Z,4.80
2019-03-28T05:09:07.464Z,4.90
2019-03-28T05:11:37.390Z,4.90
2019-03-28T05:14:07.317Z,4.80
2019-03-28T05:16:37.320Z,4.90
2019-03-28T05:19:07.558Z,4.90
2019-03-28T05:21:37.398Z,4.90
2019-03-28T05:24:07.335Z,4.70
2019-03-28T05:26:37.241Z,4.80
2019-03-28T05:29:09.077Z,4.80
2019-03-28T05:31:38.826Z,4.90
2019-03-28T05:34:08.572Z,4.90
2019-03-28T05:36:38.511Z,4.90
2019-03-28T05:39:08.345Z,5.00
2019-03-28T05:41:38.405Z,5.10
2019-03-28T05:44:08.165Z,5.40
2019-03-28T05:46:38.352Z,5.40
2019-03-28T05:49:08.216Z,5.30
2019-03-28T05:51:38.106Z,5.30
2019-03-28T05:54:27.063Z,5.20
2019-03-28T05:56:57.184Z,5.20
2019-03-28T05:59:26.994Z,5.30
2019-03-28T06:01:56.822Z,5.30
2019-03-28T06:04:26.772Z,5.30
2019-03-28T06:06:56.948Z,5.30
2019-03-28T06:09:26.691Z,5.40
2019-03-28T06:11:56.529Z,5.50
2019-03-28T06:14:26.362Z,5.50
2019-03-28T06:16:56.126Z,5.50
2019-03-28T06:19:26.023Z,5.60
2019-03-28T06:21:56.360Z,5.50
2019-03-28T06:24:26.133Z,5.50
2019-03-28T06:26:56.404Z,5.50
2019-03-28T06:29:26.253Z,5.40
2019-03-28T06:31:56.121Z,5.40
2019-03-28T06:34:26.465Z,5.40
2019-03-28T06:36:56.545Z,5.50
2019-03-28T06:39:26.420Z,5.50
2019-03-28T06:41:56.269Z,5.50
2019-03-28T06:44:26.057Z,5.70
2019-03-28T06:46:56.090Z,5.90
2019-03-28T06:49:25.963Z,6.00
2019-03-28T06:51:55.750Z,6.00
2019-03-28T06:54:25.617Z,6.20
2019-03-28T06:56:55.890Z,7.00
2019-03-28T06:59:36.543Z,8.70
2019-03-28T07:01:57.220Z,10.30
2019-03-28T07:04:27.073Z,10.00
2019-03-28T07:06:56.859Z,10.20
2019-03-28T07:09:26.610Z,10.50
2019-03-28T07:11:56.418Z,10.70
2019-03-28T07:14:26.331Z,10.40
2019-03-28T07:16:56.243Z,11.60
2019-03-28T07:19:26.341Z,11.30
2019-03-28T07:21:56.459Z,10.60
2019-03-28T07:24:26.406Z,10.80
2019-03-28T07:26:56.219Z,11.60
2019-03-28T07:29:26.013Z,11.30
2019-03-28T07:31:56.054Z,11.20
2019-03-28T07:34:25.971Z,11.60
2019-03-28T07:36:56.823Z,11.90
2019-03-28T07:39:26.809Z,10.20
2019-03-28T07:41:56.685Z,10.90
2019-03-28T07:44:27.013Z,10.90
2019-03-28T07:46:56.995Z,11.00
2019-03-28T07:49:26.782Z,10.10
2019-03-28T07:51:56.570Z,10.40
2019-03-28T07:54:26.638Z,10.50
2019-03-28T07:56:56.787Z,10.00
2019-03-28T07:59:26.937Z,9.70
2019-03-28T08:01:56.972Z,9.60
2019-03-28T08:04:26.988Z,9.50
2019-03-28T08:06:56.868Z,9.50
2019-03-28T08:09:36.023Z,9.50
2019-03-28T08:11:58.373Z,9.60
2019-03-28T08:14:28.488Z,9.60
2019-03-28T08:16:58.544Z,10.00
2019-03-28T08:19:28.580Z,9.90
2019-03-28T08:21:58.409Z,9.80
2019-03-28T08:24:28.247Z,9.70
2019-03-28T08:26:58.090Z,9.50
2019-03-28T08:29:28.381Z,9.30
2019-03-28T08:31:58.701Z,9.40
2019-03-28T08:34:31.298Z,9.90
2019-03-28T08:37:00.715Z,9.60
2019-03-28T08:39:31.183Z,9.70
2019-03-28T08:42:01.053Z,9.70
2019-03-28T08:44:30.881Z,9.70
2019-03-28T08:47:02.162Z,9.50
2019-03-28T08:49:32.373Z,10.10
2019-03-28T08:52:02.461Z,10.30
2019-03-28T08:54:32.213Z,10.40
2019-03-28T08:57:02.143Z,10.70
2019-03-28T08:59:32.829Z,11.00
2019-03-28T09:02:05.045Z,11.40
2019-03-28T09:04:34.219Z,11.60
2019-03-28T09:07:04.328Z,11.40
2019-03-28T09:09:34.249Z,11.80
2019-03-28T09:12:04.476Z,11.50
2019-03-28T09:14:34.349Z,11.60
2019-03-28T09:17:04.210Z,11.80
2019-03-28T09:19:33.954Z,11.80
2019-03-28T09:22:03.914Z,11.70
2019-03-28T09:24:33.926Z,11.90
2019-03-28T09:27:03.899Z,12.10
2019-03-28T09:29:33.760Z,12.00
2019-03-28T09:32:03.958Z,11.90
2019-03-28T09:34:33.792Z,12.10
2019-03-28T09:37:03.634Z,12.40
2019-03-28T09:39:33.918Z,12.60
2019-03-28T09:42:03.756Z,12.80
2019-03-28T09:44:33.726Z,12.80
2019-03-28T09:47:03.826Z,12.80
2019-03-28T09:49:33.677Z,12.90
2019-03-28T09:52:03.761Z,13.00
2019-03-28T09:54:33.642Z,13.30
2019-03-28T09:57:03.573Z,13.50
2019-03-28T09:59:33.358Z,13.70
2019-03-28T10:02:03.350Z,13.70
2019-03-28T10:04:33.318Z,13.90
2019-03-28T10:07:03.160Z,14.30
2019-03-28T10:09:33.483Z,14.80
2019-03-28T10:12:03.422Z,14.80
2019-03-28T10:14:33.384Z,14.90
2019-03-28T10:17:03.246Z,15.00
2019-03-28T10:19:33.609Z,15.10
2019-03-28T10:22:03.614Z,15.30
2019-03-28T10:24:34.759Z,15.70
2019-03-28T10:27:04.783Z,15.20
2019-03-28T10:29:34.729Z,15.10
2019-03-28T10:32:04.741Z,15.10
2019-03-28T10:34:34.503Z,15.00
2019-03-28T10:37:05.411Z,15.20
2019-03-28T10:39:35.212Z,15.50
2019-03-28T10:42:06.839Z,15.20
2019-03-28T10:44:37.007Z,15.20
2019-03-28T10:47:06.884Z,15.40
2019-03-28T10:49:36.750Z,14.90
2019-03-28T10:52:06.571Z,15.00
2019-03-28T10:54:36.430Z,15.10
2019-03-28T10:57:13.615Z,14.80
2019-03-28T10:59:37.817Z,15.10
2019-03-28T11:02:07.997Z,15.10
2019-03-28T11:04:37.825Z,14.90
2019-03-28T11:07:07.704Z,14.80
2019-03-28T11:09:37.606Z,15.20
2019-03-28T11:12:07.359Z,15.40
2019-03-28T11:14:37.505Z,15.30
2019-03-28T11:17:07.513Z,15.70
2019-03-28T11:19:37.610Z,15.90
2019-03-28T11:22:07.495Z,16.00
2019-03-28T11:24:37.548Z,15.80
2019-03-28T11:27:07.325Z,15.40
2019-03-28T11:29:37.231Z,15.70
2019-03-28T11:32:07.486Z,15.90
2019-03-28T11:34:37.750Z,15.90
2019-03-28T11:37:09.866Z,15.70
2019-03-28T11:39:39.350Z,15.40
2019-03-28T11:42:09.323Z,15.50
2019-03-28T11:44:39.317Z,15.40
2019-03-28T11:47:09.187Z,15.90
2019-03-28T11:49:39.383Z,16.30
2019-03-28T11:52:09.219Z,16.40
2019-03-28T11:54:38.975Z,16.40
2019-03-28T11:57:08.953Z,16.10
2019-03-28T11:59:39.127Z,16.00
2019-03-28T12:02:19.594Z,16.20
2019-03-28T12:04:43.646Z,16.00
2019-03-28T12:07:13.849Z,16.50
2019-03-28T12:09:43.943Z,17.20
2019-03-28T12:12:13.923Z,17.20
2019-03-28T12:14:43.694Z,16.90
2019-03-28T12:17:13.476Z,16.80
2019-03-28T12:19:43.381Z,16.90
2019-03-28T12:22:13.335Z,16.90
2019-03-28T12:24:43.416Z,16.80
2019-03-28T12:27:13.344Z,17.40
2019-03-28T12:29:43.362Z,17.30
2019-03-28T12:32:14.455Z,17.30
2019-03-28T12:34:44.830Z,17.10
2019-03-28T12:37:14.668Z,17.10
2019-03-28T12:39:44.518Z,16.50
2019-03-28T12:42:15.236Z,16.50
2019-03-28T12:44:56.306Z,16.80
2019-03-28T12:47:16.619Z,17.10
2019-03-28T12:49:46.560Z,17.40
2019-03-28T12:52:16.760Z,18.00
2019-03-28T12:54:46.705Z,18.40
2019-03-28T12:57:16.529Z,19.00
2019-03-28T12:59:46.511Z,18.80
2019-03-28T13:02:27.473Z,18.60
2019-03-28T13:04:47.999Z,18.30
2019-03-28T13:07:17.874Z,18.10
2019-03-28T13:09:48.071Z,18.70
2019-03-28T13:12:17.863Z,18.30
2019-03-28T13:14:48.049Z,18.50
2019-03-28T13:17:19.933Z,18.00
2019-03-28T13:19:49.849Z,17.80
2019-03-28T13:22:20.098Z,18.30
2019-03-28T13:24:49.998Z,18.20
2019-03-28T13:27:20.067Z,17.90
2019-03-28T13:29:49.969Z,18.00
2019-03-28T13:32:21.061Z,18.20
2019-03-28T13:34:52.735Z,18.40
2019-03-28T13:37:24.007Z,18.70
2019-03-28T13:39:53.854Z,18.90
2019-03-28T13:42:24.637Z,19.20
2019-03-28T13:44:55.474Z,18.70
2019-03-28T13:47:25.431Z,19.50
2019-03-28T13:49:55.403Z,19.70
2019-03-28T13:52:25.225Z,19.70
2019-03-28T13:54:55.405Z,18.30
2019-03-28T13:57:25.297Z,18.00
2019-03-28T13:59:55.108Z,18.20
2019-03-28T14:02:24.865Z,17.30
2019-03-28T14:04:54.758Z,17.20
2019-03-28T14:07:24.566Z,17.30
2019-03-28T14:09:54.902Z,17.00
2019-03-28T14:12:24.681Z,16.80
2019-03-28T14:14:54.559Z,16.60
2019-03-28T14:17:24.445Z,16.70
2019-03-28T14:19:54.269Z,16.30
2019-03-28T14:22:24.010Z,16.40
2019-03-28T14:24:54.745Z,16.40
2019-03-28T14:27:24.516Z,16.30
2019-03-28T14:29:54.388Z,16.20
2019-03-28T14:32:26.088Z,16.30
2019-03-28T14:34:55.881Z,16.50
2019-03-28T14:37:25.838Z,16.60
2019-03-28T14:39:55.899Z,16.50
2019-03-28T14:42:25.730Z,16.60
2019-03-28T14:44:55.521Z,16.60
2019-03-28T14:47:25.681Z,16.40
2019-03-28T14:49:55.562Z,16.20
2019-03-28T14:52:25.512Z,16.30
2019-03-28T14:54:55.354Z,16.30
2019-03-28T14:57:25.273Z,16.40
2019-03-28T14:59:55.649Z,16.50
2019-03-28T15:02:25.565Z,16.50
2019-03-28T15:04:55.421Z,16.20
2019-03-28T15:07:25.682Z,16.30
2019-03-28T15:09:55.857Z,16.20
2019-03-28T15:12:25.805Z,16.40
2019-03-28T15:14:55.629Z,16.30
2019-03-28T15:17:25.477Z,16.30
2019-03-28T15:19:55.313Z,16.30
2019-03-28T15:22:25.139Z,16.30
2019-03-28T15:24:55.332Z,16.30
2019-03-28T15:27:27.397Z,16.40
2019-03-28T15:29:57.222Z,16.40
2019-03-28T15:32:27.135Z,16.30
2019-03-28T15:34:56.949Z,16.40
2019-03-28T15:37:26.946Z,16.80
2019-03-28T15:39:57.624Z,16.80
2019-03-28T15:42:28.114Z,16.60
2019-03-28T15:45:10.986Z,16.60
2019-03-28T15:47:40.840Z,16.80
2019-03-28T15:50:10.721Z,16.60
2019-03-28T15:53:20.255Z,16.50
2019-03-28T15:56:01.767Z,16.90
2019-03-28T15:58:50.428Z,16.90
2019-03-28T16:01:47.888Z,17.00
2019-03-28T16:04:27.282Z,16.80
2019-03-28T16:06:59.862Z,16.60
2019-03-28T16:09:33.225Z,16.30
2019-03-28T16:12:29.581Z,16.40
2019-03-28T16:15:05.366Z,16.70
2019-03-28T16:17:35.265Z,16.80
2019-03-28T16:20:05.685Z,16.70
2019-03-28T16:22:35.559Z,16.50
2019-03-28T16:25:05.641Z,16.40
2019-03-28T16:28:17.018Z,16.40
2019-03-28T16:31:22.726Z,16.20
2019-03-28T16:34:28.432Z,15.80
2019-03-28T16:36:59.428Z,15.70
2019-03-28T16:39:32.154Z,15.50
2019-03-28T16:42:12.413Z,15.40
2019-03-28T16:45:03.413Z,15.50
2019-03-28T16:47:44.939Z,15.80
2019-03-28T16:50:15.656Z,15.50
2019-03-28T16:52:48.214Z,15.30
2019-03-28T16:55:37.718Z,15.40
2019-03-28T16:58:17.529Z,15.40
2019-03-28T17:00:59.575Z,15.30
2019-03-28T17:04:02.536Z,15.60
2019-03-28T17:06:33.733Z,15.70
2019-03-28T17:09:18.254Z,15.40
2019-03-28T17:11:44.543Z,15.30
2019-03-28T17:14:14.562Z,15.20
2019-03-28T17:16:44.340Z,15.10
2019-03-28T17:19:14.964Z,15.10
2019-03-28T17:21:44.803Z,14.90
2019-03-28T17:24:14.656Z,14.90
2019-03-28T17:26:44.520Z,14.90
2019-03-28T17:29:14.436Z,14.80
2019-03-28T17:31:45.005Z,14.80
2019-03-28T17:34:15.093Z,14.70
2019-03-28T17:36:45.398Z,14.60
2019-03-28T17:39:15.641Z,14.50
2019-03-28T17:41:45.545Z,14.40
2019-03-28T17:44:15.504Z,14.40
2019-03-28T17:46:45.273Z,14.30
2019-03-28T17:49:15.227Z,14.30
2019-03-28T17:51:45.121Z,14.20
2019-03-28T17:54:14.904Z,14.10
2019-03-28T17:56:44.840Z,14.10
2019-03-28T17:59:15.076Z,14.00
2019-03-28T18:01:44.910Z,13.90
2019-03-28T18:04:22.625Z,13.80
2019-03-28T18:06:46.228Z,13.80
2019-03-28T18:09:16.290Z,13.70
2019-03-28T18:11:47.752Z,13.70
2019-03-28T18:14:18.210Z,13.70
2019-03-28T18:16:48.202Z,13.60
2019-03-28T18:19:17.997Z,13.50
2019-03-28T18:21:47.795Z,13.50
2019-03-28T18:24:17.614Z,13.50
2019-03-28T18:26:47.425Z,13.40
2019-03-28T18:29:19.228Z,13.40
2019-03-28T18:31:50.719Z,13.30
2019-03-28T18:34:20.435Z,13.20
2019-03-28T18:36:50.159Z,13.20
2019-03-28T18:39:19.916Z,13.20
2019-03-28T18:41:49.788Z,13.10
2019-03-28T18:44:19.502Z,13.10
2019-03-28T18:46:49.478Z,13.00
2019-03-28T18:49:19.334Z,13.00
2019-03-28T18:51:49.190Z,13.00
2019-03-28T18:54:20.293Z,12.90
2019-03-28T18:56:50.961Z,12.90
2019-03-28T18:59:20.699Z,12.90
2019-03-28T19:01:50.561Z,12.90
2019-03-28T19:04:20.769Z,12.80
2019-03-28T19:06:51.093Z,12.80
2019-03-28T19:09:22.560Z,12.70
2019-03-28T19:11:52.517Z,12.70
2019-03-28T19:14:22.556Z,12.70
2019-03-28T19:16:52.481Z,12.60
2019-03-28T19:19:22.237Z,12.60
2019-03-28T19:21:52.041Z,12.60
2019-03-28T19:24:21.793Z,12.60
2019-03-28T19:26:52.811Z,12.50
2019-03-28T19:29:22.869Z,12.50
2019-03-28T19:31:52.721Z,12.40
2019-03-28T19:34:22.554Z,12.40
2019-03-28T19:36:55.847Z,12.40
2019-03-28T19:39:32.651Z,12.30
2019-03-28T19:42:04.456Z,12.30
2019-03-28T19:44:34.564Z,12.30
2019-03-28T19:47:04.389Z,12.30
2019-03-28T19:49:34.158Z,12.30
2019-03-28T19:52:04.530Z,12.30
2019-03-28T19:54:34.362Z,12.20
2019-03-28T19:57:04.677Z,12.20
2019-03-28T19:59:34.620Z,12.10
2019-03-28T20:02:05.286Z,12.10
2019-03-28T20:04:35.291Z,12.00
2019-03-28T20:07:06.434Z,12.00
2019-03-28T20:09:36.344Z,12.00
2019-03-28T20:12:06.240Z,12.00
2019-03-28T20:14:36.074Z,11.90
2019-03-28T20:17:06.020Z,11.90
2019-03-28T20:19:35.972Z,11.80
2019-03-28T20:22:05.907Z,11.80
2019-03-28T20:24:35.806Z,11.80
2019-03-28T20:27:05.834Z,11.80
2019-03-28T20:29:35.840Z,11.80
2019-03-28T20:32:08.263Z,11.80
2019-03-28T20:34:37.782Z,11.70
2019-03-28T20:37:07.607Z,11.70
2019-03-28T20:39:37.486Z,11.70
2019-03-28T20:42:08.767Z,11.70
2019-03-28T20:44:38.958Z,11.60
2019-03-28T20:47:08.906Z,11.70
2019-03-28T20:49:38.748Z,11.60
2019-03-28T20:52:09.641Z,11.60
2019-03-28T20:54:39.682Z,11.50
2019-03-28T20:57:10.029Z,11.50
2019-03-28T20:59:40.092Z,11.40
2019-03-28T21:02:10.338Z,11.50
2019-03-28T21:04:40.333Z,11.30
2019-03-28T21:07:10.598Z,11.30
2019-03-28T21:09:40.429Z,11.20
2019-03-28T21:12:10.623Z,11.20
2019-03-28T21:14:40.520Z,11.30
2019-03-28T21:17:10.452Z,11.20
2019-03-28T21:19:40.407Z,11.20
2019-03-28T21:22:10.513Z,11.20
2019-03-28T21:24:40.359Z,11.10
2019-03-28T21:27:10.478Z,11.00
2019-03-28T21:29:48.740Z,10.90
2019-03-28T21:32:11.950Z,10.80
2019-03-28T21:34:42.076Z,10.80
2019-03-28T21:37:11.997Z,10.90
2019-03-28T21:39:41.855Z,10.80
2019-03-28T21:42:12.084Z,10.80
2019-03-28T21:44:42.149Z,10.80
2019-03-28T21:47:12.056Z,10.60
2019-03-28T21:49:41.980Z,10.50
2019-03-28T21:52:45.135Z,10.50
2019-03-28T21:55:18.668Z,10.40
2019-03-28T21:57:51.202Z,10.50
2019-03-28T22:00:23.137Z,10.50
2019-03-28T22:02:53.329Z,10.50
2019-03-28T22:05:23.589Z,10.50
2019-03-28T22:07:53.789Z,10.50
2019-03-28T22:10:23.621Z,10.40
2019-03-28T22:12:53.749Z,10.40
2019-03-28T22:15:25.245Z,10.40
2019-03-28T22:17:55.033Z,10.30
2019-03-28T22:20:25.130Z,10.40
2019-03-28T22:22:55.137Z,10.30
2019-03-28T22:25:25.300Z,10.30
2019-03-28T22:27:55.506Z,10.10
2019-03-28T22:30:25.225Z,10.10
2019-03-28T22:32:55.054Z,10.00
2019-03-28T22:35:25.969Z,10.20
2019-03-28T22:37:56.432Z,10.20
2019-03-28T22:40:26.221Z,10.20
2019-03-28T22:42:56.124Z,10.30
2019-03-28T22:45:33.601Z,10.40
2019-03-28T22:48:10.765Z,10.50
2019-03-28T22:50:35.700Z,10.60
2019-03-28T22:53:05.519Z,10.50
2019-03-28T22:55:35.462Z,10.40
2019-03-28T22:58:05.413Z,10.40
2019-03-28T23:00:42.596Z,10.20
2019-03-28T23:03:12.574Z,10.20
2019-03-28T23:05:43.223Z,10.20
2019-03-28T23:08:13.726Z,10.30
2019-03-28T23:10:44.116Z,10.30
2019-03-28T23:13:14.300Z,10.20
2019-03-28T23:15:44.703Z,10.10
2019-03-28T23:18:14.524Z,10.20
2019-03-28T23:20:44.597Z,10.20
2019-03-28T23:23:14.588Z,10.30
2019-03-28T23:25:44.402Z,10.30
2019-03-28T23:28:14.555Z,10.20
2019-03-28T23:30:44.929Z,10.20
2019-03-28T23:33:14.886Z,10.20
2019-03-28T23:35:45.094Z,10.10
2019-03-28T23:38:15.027Z,10.20
2019-03-28T23:40:44.802Z,10.20
2019-03-28T23:43:14.629Z,10.10
2019-03-28T23:45:45.143Z,10.10
2019-03-28T23:48:15.572Z,10.10
2019-03-28T23:50:45.324Z,10.10
2019-03-28T23:53:15.390Z,10.10
2019-03-28T23:55:45.194Z,10.00
2019-03-28T23:58:15.024Z,10.00
